sensor_id;sensor_type;location;lat;lon;timestamp;P1;durP1;ratioP1;P2;durP2;ratioP2
3171;SDS011;1597;51.572;6.992;2023-06-26T00:00:05;10.03;;;8.90;;
3171;SDS011;1597;51.572;6.992;2023-06-26T00:06:13;9.07;;;8.27;;
3171;SDS011;1597;51.572;6.992;2023-06-26T00:08:40;10.07;;;9.17;;
3171;SDS011;1597;51.572;6.992;2023-06-26T00:11:05;9.60;;;8.80;;
3171;SDS011;1597;51.572;6.992;2023-06-26T00:13:31;8.70;;;7.90;;
3171;SDS011;1597;51.572;6.992;2023-06-26T00:15:57;9.00;;;8.20;;
3171;SDS011;1597;51.572;6.992;2023-06-26T00:18:25;9.77;;;8.87;;
3171;SDS011;1597;51.572;6.992;2023-06-26T00:20:51;9.57;;;8.70;;
3171;SDS011;1597;51.572;6.992;2023-06-26T00:26:11;9.17;;;8.27;;
3171;SDS011;1597;51.572;6.992;2023-06-26T00:28:37;9.53;;;8.53;;
3171;SDS011;1597;51.572;6.992;2023-06-26T00:31:04;9.37;;;8.60;;
3171;SDS011;1597;51.572;6.992;2023-06-26T00:36:33;9.97;;;8.93;;
3171;SDS011;1597;51.572;6.992;2023-06-26T00:38:59;9.00;;;8.10;;
3171;SDS011;1597;51.572;6.992;2023-06-26T00:41:25;9.80;;;8.90;;
3171;SDS011;1597;51.572;6.992;2023-06-26T00:43:52;10.30;;;9.40;;
3171;SDS011;1597;51.572;6.992;2023-06-26T00:46:20;8.77;;;7.97;;
3171;SDS011;1597;51.572;6.992;2023-06-26T00:49:02;10.27;;;9.20;;
3171;SDS011;1597;51.572;6.992;2023-06-26T00:51:29;9.60;;;8.80;;
3171;SDS011;1597;51.572;6.992;2023-06-26T00:53:56;9.70;;;8.80;;
3171;SDS011;1597;51.572;6.992;2023-06-26T00:56:23;8.90;;;8.07;;
3171;SDS011;1597;51.572;6.992;2023-06-26T00:58:49;13.03;;;8.93;;
3171;SDS011;1597;51.572;6.992;2023-06-26T01:01:15;9.10;;;8.20;;
3171;SDS011;1597;51.572;6.992;2023-06-26T01:03:45;9.43;;;8.60;;
3171;SDS011;1597;51.572;6.992;2023-06-26T01:06:16;9.73;;;8.73;;
3171;SDS011;1597;51.572;6.992;2023-06-26T01:08:43;9.80;;;8.90;;
3171;SDS011;1597;51.572;6.992;2023-06-26T01:11:10;9.83;;;8.53;;
3171;SDS011;1597;51.572;6.992;2023-06-26T01:13:38;8.40;;;7.60;;
3171;SDS011;1597;51.572;6.992;2023-06-26T01:16:05;8.97;;;8.07;;
3171;SDS011;1597;51.572;6.992;2023-06-26T01:18:32;11.33;;;9.33;;
3171;SDS011;1597;51.572;6.992;2023-06-26T01:20:59;10.73;;;8.87;;
3171;SDS011;1597;51.572;6.992;2023-06-26T01:23:45;8.47;;;7.67;;
3171;SDS011;1597;51.572;6.992;2023-06-26T01:26:34;9.37;;;8.10;;
3171;SDS011;1597;51.572;6.992;2023-06-26T01:29:02;9.20;;;8.30;;
3171;SDS011;1597;51.572;6.992;2023-06-26T01:31:31;10.00;;;9.07;;
3171;SDS011;1597;51.572;6.992;2023-06-26T01:33:59;10.00;;;9.10;;
3171;SDS011;1597;51.572;6.992;2023-06-26T01:36:26;8.70;;;7.90;;
3171;SDS011;1597;51.572;6.992;2023-06-26T01:38:52;9.37;;;8.37;;
3171;SDS011;1597;51.572;6.992;2023-06-26T01:41:19;8.50;;;7.73;;
3171;SDS011;1597;51.572;6.992;2023-06-26T01:55:14;11.63;;;10.50;;
3171;SDS011;1597;51.572;6.992;2023-06-26T01:58:13;10.57;;;9.30;;
3171;SDS011;1597;51.572;6.992;2023-06-26T02:00:42;10.40;;;9.20;;
3171;SDS011;1597;51.572;6.992;2023-06-26T02:03:08;10.80;;;9.73;;
3171;SDS011;1597;51.572;6.992;2023-06-26T02:05:34;9.70;;;8.80;;
3171;SDS011;1597;51.572;6.992;2023-06-26T02:08:00;11.47;;;10.33;;
3171;SDS011;1597;51.572;6.992;2023-06-26T02:10:27;9.50;;;8.63;;
3171;SDS011;1597;51.572;6.992;2023-06-26T02:12:53;10.10;;;9.10;;
3171;SDS011;1597;51.572;6.992;2023-06-26T02:15:19;9.80;;;8.90;;
3171;SDS011;1597;51.572;6.992;2023-06-26T02:17:45;9.27;;;8.47;;
3171;SDS011;1597;51.572;6.992;2023-06-26T02:20:13;9.67;;;8.67;;
3171;SDS011;1597;51.572;6.992;2023-06-26T02:22:40;9.60;;;8.60;;
3171;SDS011;1597;51.572;6.992;2023-06-26T02:27:51;8.67;;;7.77;;
3171;SDS011;1597;51.572;6.992;2023-06-26T02:33:07;9.10;;;8.20;;
3171;SDS011;1597;51.572;6.992;2023-06-26T02:38:33;8.10;;;7.40;;
3171;SDS011;1597;51.572;6.992;2023-06-26T02:40:59;8.77;;;8.00;;
3171;SDS011;1597;51.572;6.992;2023-06-26T02:43:43;8.63;;;7.77;;
3171;SDS011;1597;51.572;6.992;2023-06-26T02:50:10;9.17;;;8.27;;
3171;SDS011;1597;51.572;6.992;2023-06-26T02:52:36;8.10;;;7.30;;
3171;SDS011;1597;51.572;6.992;2023-06-26T02:55:02;8.30;;;7.50;;
3171;SDS011;1597;51.572;6.992;2023-06-26T02:57:29;7.93;;;7.33;;
3171;SDS011;1597;51.572;6.992;2023-06-26T02:59:55;9.40;;;8.57;;
3171;SDS011;1597;51.572;6.992;2023-06-26T03:02:21;8.63;;;7.93;;
3171;SDS011;1597;51.572;6.992;2023-06-26T03:04:47;9.07;;;8.07;;
3171;SDS011;1597;51.572;6.992;2023-06-26T03:07:14;9.70;;;8.70;;
3171;SDS011;1597;51.572;6.992;2023-06-26T03:09:41;8.40;;;7.70;;
3171;SDS011;1597;51.572;6.992;2023-06-26T03:12:07;8.20;;;7.40;;
3171;SDS011;1597;51.572;6.992;2023-06-26T03:14:33;7.87;;;7.17;;
3171;SDS011;1597;51.572;6.992;2023-06-26T03:17:04;7.60;;;6.97;;
3171;SDS011;1597;51.572;6.992;2023-06-26T03:19:32;8.53;;;7.73;;
3171;SDS011;1597;51.572;6.992;2023-06-26T03:25:32;8.70;;;7.90;;
3171;SDS011;1597;51.572;6.992;2023-06-26T03:28:01;8.80;;;8.00;;
3171;SDS011;1597;51.572;6.992;2023-06-26T03:30:27;9.57;;;7.93;;
3171;SDS011;1597;51.572;6.992;2023-06-26T03:32:52;9.43;;;8.53;;
3171;SDS011;1597;51.572;6.992;2023-06-26T03:35:18;9.33;;;8.30;;
3171;SDS011;1597;51.572;6.992;2023-06-26T03:37:44;9.50;;;8.70;;
3171;SDS011;1597;51.572;6.992;2023-06-26T03:40:10;8.43;;;7.63;;
3171;SDS011;1597;51.572;6.992;2023-06-26T03:42:36;10.53;;;8.13;;
3171;SDS011;1597;51.572;6.992;2023-06-26T03:45:02;8.73;;;7.80;;
3171;SDS011;1597;51.572;6.992;2023-06-26T03:47:28;8.90;;;7.60;;
3171;SDS011;1597;51.572;6.992;2023-06-26T03:49:54;13.47;;;9.53;;
3171;SDS011;1597;51.572;6.992;2023-06-26T03:52:19;12.27;;;8.90;;
3171;SDS011;1597;51.572;6.992;2023-06-26T03:54:45;10.17;;;9.17;;
3171;SDS011;1597;51.572;6.992;2023-06-26T04:00:21;9.87;;;8.87;;
3171;SDS011;1597;51.572;6.992;2023-06-26T04:02:48;10.23;;;9.40;;
3171;SDS011;1597;51.572;6.992;2023-06-26T04:05:16;9.40;;;8.47;;
3171;SDS011;1597;51.572;6.992;2023-06-26T04:07:42;10.87;;;9.97;;
3171;SDS011;1597;51.572;6.992;2023-06-26T04:10:08;10.40;;;9.40;;
3171;SDS011;1597;51.572;6.992;2023-06-26T04:12:34;11.50;;;10.20;;
3171;SDS011;1597;51.572;6.992;2023-06-26T04:15:00;10.27;;;9.27;;
3171;SDS011;1597;51.572;6.992;2023-06-26T04:17:26;9.70;;;8.70;;
3171;SDS011;1597;51.572;6.992;2023-06-26T04:19:54;10.00;;;9.10;;
3171;SDS011;1597;51.572;6.992;2023-06-26T04:22:30;12.10;;;10.33;;
3171;SDS011;1597;51.572;6.992;2023-06-26T04:24:55;9.67;;;8.70;;
3171;SDS011;1597;51.572;6.992;2023-06-26T04:27:21;9.90;;;9.00;;
3171;SDS011;1597;51.572;6.992;2023-06-26T04:29:47;11.73;;;9.67;;
3171;SDS011;1597;51.572;6.992;2023-06-26T04:32:16;12.80;;;8.90;;
3171;SDS011;1597;51.572;6.992;2023-06-26T04:34:42;9.07;;;8.17;;
3171;SDS011;1597;51.572;6.992;2023-06-26T04:37:08;10.50;;;9.40;;
3171;SDS011;1597;51.572;6.992;2023-06-26T04:39:34;10.13;;;8.90;;
3171;SDS011;1597;51.572;6.992;2023-06-26T04:42:02;10.20;;;8.90;;
3171;SDS011;1597;51.572;6.992;2023-06-26T04:44:30;9.60;;;8.03;;
3171;SDS011;1597;51.572;6.992;2023-06-26T04:46:56;8.47;;;7.67;;
3171;SDS011;1597;51.572;6.992;2023-06-26T04:49:21;8.47;;;7.70;;
3171;SDS011;1597;51.572;6.992;2023-06-26T04:51:47;8.70;;;7.90;;
3171;SDS011;1597;51.572;6.992;2023-06-26T04:54:13;9.10;;;8.30;;
3171;SDS011;1597;51.572;6.992;2023-06-26T04:56:39;8.83;;;7.23;;
3171;SDS011;1597;51.572;6.992;2023-06-26T04:59:05;8.10;;;6.50;;
3171;SDS011;1597;51.572;6.992;2023-06-26T05:01:31;8.30;;;7.03;;
3171;SDS011;1597;51.572;6.992;2023-06-26T05:03:57;8.80;;;7.17;;
3171;SDS011;1597;51.572;6.992;2023-06-26T05:06:24;9.50;;;7.30;;
3171;SDS011;1597;51.572;6.992;2023-06-26T05:08:49;10.47;;;7.07;;
3171;SDS011;1597;51.572;6.992;2023-06-26T05:11:18;8.27;;;7.13;;
3171;SDS011;1597;51.572;6.992;2023-06-26T05:13:45;8.50;;;7.47;;
3171;SDS011;1597;51.572;6.992;2023-06-26T05:16:11;11.80;;;8.17;;
3171;SDS011;1597;51.572;6.992;2023-06-26T05:18:37;11.73;;;7.87;;
3171;SDS011;1597;51.572;6.992;2023-06-26T05:21:03;12.13;;;7.63;;
3171;SDS011;1597;51.572;6.992;2023-06-26T05:23:32;10.40;;;7.07;;
3171;SDS011;1597;51.572;6.992;2023-06-26T05:26:02;11.60;;;7.50;;
3171;SDS011;1597;51.572;6.992;2023-06-26T05:28:29;7.07;;;6.40;;
3171;SDS011;1597;51.572;6.992;2023-06-26T05:30:56;8.20;;;6.70;;
3171;SDS011;1597;51.572;6.992;2023-06-26T05:33:23;7.97;;;7.17;;
3171;SDS011;1597;51.572;6.992;2023-06-26T05:35:52;8.13;;;6.40;;
3171;SDS011;1597;51.572;6.992;2023-06-26T05:38:20;8.83;;;6.17;;
3171;SDS011;1597;51.572;6.992;2023-06-26T05:40:47;7.33;;;6.57;;
3171;SDS011;1597;51.572;6.992;2023-06-26T05:43:13;7.47;;;5.50;;
3171;SDS011;1597;51.572;6.992;2023-06-26T05:45:40;8.50;;;6.50;;
3171;SDS011;1597;51.572;6.992;2023-06-26T05:48:07;7.20;;;6.37;;
3171;SDS011;1597;51.572;6.992;2023-06-26T05:50:33;9.53;;;7.10;;
3171;SDS011;1597;51.572;6.992;2023-06-26T05:53:00;9.00;;;6.60;;
3171;SDS011;1597;51.572;6.992;2023-06-26T05:55:28;7.47;;;6.50;;
3171;SDS011;1597;51.572;6.992;2023-06-26T05:57:54;7.13;;;6.43;;
3171;SDS011;1597;51.572;6.992;2023-06-26T06:00:24;14.10;;;7.50;;
3171;SDS011;1597;51.572;6.992;2023-06-26T06:02:51;9.47;;;6.40;;
3171;SDS011;1597;51.572;6.992;2023-06-26T06:05:19;11.20;;;7.13;;
3171;SDS011;1597;51.572;6.992;2023-06-26T06:07:46;8.47;;;6.20;;
3171;SDS011;1597;51.572;6.992;2023-06-26T06:10:12;12.97;;;7.97;;
3171;SDS011;1597;51.572;6.992;2023-06-26T06:12:38;8.43;;;6.23;;
3171;SDS011;1597;51.572;6.992;2023-06-26T06:15:05;12.60;;;6.47;;
3171;SDS011;1597;51.572;6.992;2023-06-26T06:17:31;11.40;;;6.53;;
3171;SDS011;1597;51.572;6.992;2023-06-26T06:19:57;11.03;;;6.10;;
3171;SDS011;1597;51.572;6.992;2023-06-26T06:22:23;9.57;;;5.80;;
3171;SDS011;1597;51.572;6.992;2023-06-26T06:24:50;8.20;;;6.20;;
3171;SDS011;1597;51.572;6.992;2023-06-26T06:27:16;9.97;;;6.43;;
3171;SDS011;1597;51.572;6.992;2023-06-26T06:29:42;9.70;;;6.50;;
3171;SDS011;1597;51.572;6.992;2023-06-26T06:32:08;7.70;;;5.70;;
3171;SDS011;1597;51.572;6.992;2023-06-26T06:34:34;11.60;;;7.60;;
3171;SDS011;1597;51.572;6.992;2023-06-26T06:37:02;9.20;;;7.47;;
3171;SDS011;1597;51.572;6.992;2023-06-26T06:39:29;10.97;;;6.50;;
3171;SDS011;1597;51.572;6.992;2023-06-26T06:41:55;13.90;;;6.67;;
3171;SDS011;1597;51.572;6.992;2023-06-26T06:44:20;15.57;;;7.20;;
3171;SDS011;1597;51.572;6.992;2023-06-26T06:46:47;10.37;;;7.10;;
3171;SDS011;1597;51.572;6.992;2023-06-26T06:49:14;8.00;;;6.27;;
3171;SDS011;1597;51.572;6.992;2023-06-26T06:51:41;11.73;;;7.30;;
3171;SDS011;1597;51.572;6.992;2023-06-26T06:54:07;8.90;;;6.93;;
3171;SDS011;1597;51.572;6.992;2023-06-26T06:56:33;10.77;;;5.90;;
3171;SDS011;1597;51.572;6.992;2023-06-26T06:58:59;13.00;;;6.87;;
3171;SDS011;1597;51.572;6.992;2023-06-26T07:01:25;11.50;;;7.40;;
3171;SDS011;1597;51.572;6.992;2023-06-26T07:03:52;13.37;;;9.00;;
3171;SDS011;1597;51.572;6.992;2023-06-26T07:06:18;13.23;;;6.90;;
3171;SDS011;1597;51.572;6.992;2023-06-26T07:08:44;9.77;;;7.50;;
3171;SDS011;1597;51.572;6.992;2023-06-26T07:11:12;11.40;;;7.80;;
3171;SDS011;1597;51.572;6.992;2023-06-26T07:13:44;8.97;;;6.63;;
3171;SDS011;1597;51.572;6.992;2023-06-26T07:16:10;9.73;;;7.00;;
3171;SDS011;1597;51.572;6.992;2023-06-26T07:18:37;12.53;;;7.60;;
3171;SDS011;1597;51.572;6.992;2023-06-26T07:21:05;14.07;;;8.43;;
3171;SDS011;1597;51.572;6.992;2023-06-26T07:23:31;16.17;;;8.00;;
3171;SDS011;1597;51.572;6.992;2023-06-26T07:25:57;9.83;;;7.40;;
3171;SDS011;1597;51.572;6.992;2023-06-26T07:28:24;9.20;;;8.00;;
3171;SDS011;1597;51.572;6.992;2023-06-26T07:30:50;15.07;;;6.87;;
3171;SDS011;1597;51.572;6.992;2023-06-26T07:33:16;8.30;;;7.20;;
3171;SDS011;1597;51.572;6.992;2023-06-26T07:35:42;16.30;;;8.40;;
3171;SDS011;1597;51.572;6.992;2023-06-26T07:38:07;15.60;;;8.33;;
3171;SDS011;1597;51.572;6.992;2023-06-26T07:40:33;11.43;;;7.87;;
3171;SDS011;1597;51.572;6.992;2023-06-26T07:42:59;13.30;;;8.73;;
3171;SDS011;1597;51.572;6.992;2023-06-26T07:45:25;13.27;;;8.20;;
3171;SDS011;1597;51.572;6.992;2023-06-26T07:47:51;9.70;;;7.00;;
3171;SDS011;1597;51.572;6.992;2023-06-26T07:50:17;18.63;;;8.97;;
3171;SDS011;1597;51.572;6.992;2023-06-26T07:52:47;14.70;;;7.93;;
3171;SDS011;1597;51.572;6.992;2023-06-26T07:55:13;16.77;;;8.87;;
3171;SDS011;1597;51.572;6.992;2023-06-26T07:57:39;18.23;;;9.70;;
3171;SDS011;1597;51.572;6.992;2023-06-26T08:00:05;13.60;;;6.73;;
3171;SDS011;1597;51.572;6.992;2023-06-26T08:02:32;12.13;;;8.40;;
3171;SDS011;1597;51.572;6.992;2023-06-26T08:04:58;13.60;;;7.23;;
3171;SDS011;1597;51.572;6.992;2023-06-26T08:07:24;8.43;;;6.63;;
3171;SDS011;1597;51.572;6.992;2023-06-26T08:09:50;12.80;;;7.83;;
3171;SDS011;1597;51.572;6.992;2023-06-26T08:12:15;11.77;;;7.93;;
3171;SDS011;1597;51.572;6.992;2023-06-26T08:14:41;11.40;;;6.80;;
3171;SDS011;1597;51.572;6.992;2023-06-26T08:17:07;13.57;;;7.37;;
3171;SDS011;1597;51.572;6.992;2023-06-26T08:19:33;7.33;;;6.50;;
3171;SDS011;1597;51.572;6.992;2023-06-26T08:21:59;11.23;;;6.60;;
3171;SDS011;1597;51.572;6.992;2023-06-26T08:24:25;13.97;;;8.37;;
3171;SDS011;1597;51.572;6.992;2023-06-26T08:26:51;10.83;;;7.70;;
3171;SDS011;1597;51.572;6.992;2023-06-26T08:29:16;14.03;;;7.30;;
3171;SDS011;1597;51.572;6.992;2023-06-26T08:31:43;13.27;;;6.40;;
3171;SDS011;1597;51.572;6.992;2023-06-26T08:34:09;15.10;;;6.73;;
3171;SDS011;1597;51.572;6.992;2023-06-26T08:36:35;8.67;;;6.47;;
3171;SDS011;1597;51.572;6.992;2023-06-26T08:39:01;15.43;;;7.50;;
3171;SDS011;1597;51.572;6.992;2023-06-26T08:41:27;7.57;;;5.70;;
3171;SDS011;1597;51.572;6.992;2023-06-26T08:43:53;9.10;;;5.60;;
3171;SDS011;1597;51.572;6.992;2023-06-26T08:46:19;10.53;;;6.43;;
3171;SDS011;1597;51.572;6.992;2023-06-26T08:48:48;13.03;;;6.27;;
3171;SDS011;1597;51.572;6.992;2023-06-26T08:51:21;10.20;;;6.40;;
3171;SDS011;1597;51.572;6.992;2023-06-26T08:56:25;8.93;;;6.00;;
3171;SDS011;1597;51.572;6.992;2023-06-26T08:59:05;8.97;;;6.43;;
3171;SDS011;1597;51.572;6.992;2023-06-26T09:01:33;12.80;;;6.30;;
3171;SDS011;1597;51.572;6.992;2023-06-26T09:03:59;11.87;;;6.73;;
3171;SDS011;1597;51.572;6.992;2023-06-26T09:06:25;10.13;;;5.87;;
3171;SDS011;1597;51.572;6.992;2023-06-26T09:08:52;13.00;;;5.50;;
3171;SDS011;1597;51.572;6.992;2023-06-26T09:11:18;9.33;;;6.27;;
3171;SDS011;1597;51.572;6.992;2023-06-26T09:13:45;14.37;;;6.00;;
3171;SDS011;1597;51.572;6.992;2023-06-26T09:16:12;14.53;;;6.00;;
3171;SDS011;1597;51.572;6.992;2023-06-26T09:18:40;9.40;;;6.27;;
3171;SDS011;1597;51.572;6.992;2023-06-26T09:21:10;8.37;;;6.03;;
3171;SDS011;1597;51.572;6.992;2023-06-26T09:23:37;6.40;;;5.33;;
3171;SDS011;1597;51.572;6.992;2023-06-26T09:26:06;8.37;;;5.53;;
3171;SDS011;1597;51.572;6.992;2023-06-26T09:28:32;9.73;;;6.20;;
3171;SDS011;1597;51.572;6.992;2023-06-26T09:31:01;7.70;;;5.20;;
3171;SDS011;1597;51.572;6.992;2023-06-26T09:33:33;10.07;;;5.47;;
3171;SDS011;1597;51.572;6.992;2023-06-26T09:36:06;8.50;;;5.57;;
3171;SDS011;1597;51.572;6.992;2023-06-26T09:38:36;10.47;;;5.67;;
3171;SDS011;1597;51.572;6.992;2023-06-26T09:41:02;6.80;;;4.87;;
3171;SDS011;1597;51.572;6.992;2023-06-26T09:43:28;9.27;;;5.20;;
3171;SDS011;1597;51.572;6.992;2023-06-26T09:45:56;10.30;;;5.57;;
3171;SDS011;1597;51.572;6.992;2023-06-26T09:48:22;6.17;;;4.90;;
3171;SDS011;1597;51.572;6.992;2023-06-26T09:50:49;6.33;;;5.10;;
3171;SDS011;1597;51.572;6.992;2023-06-26T09:53:17;11.33;;;7.07;;
3171;SDS011;1597;51.572;6.992;2023-06-26T09:55:45;8.40;;;4.50;;
3171;SDS011;1597;51.572;6.992;2023-06-26T09:58:12;9.60;;;5.60;;
3171;SDS011;1597;51.572;6.992;2023-06-26T10:00:43;9.50;;;5.17;;
3171;SDS011;1597;51.572;6.992;2023-06-26T10:03:13;4.50;;;4.10;;
3171;SDS011;1597;51.572;6.992;2023-06-26T10:05:40;12.63;;;7.00;;
3171;SDS011;1597;51.572;6.992;2023-06-26T10:08:10;7.90;;;5.70;;
3171;SDS011;1597;51.572;6.992;2023-06-26T10:10:36;8.00;;;4.10;;
3171;SDS011;1597;51.572;6.992;2023-06-26T10:13:15;4.87;;;4.13;;
3171;SDS011;1597;51.572;6.992;2023-06-26T10:15:47;4.87;;;4.33;;
3171;SDS011;1597;51.572;6.992;2023-06-26T10:18:16;4.80;;;4.30;;
3171;SDS011;1597;51.572;6.992;2023-06-26T10:20:45;5.70;;;4.43;;
3171;SDS011;1597;51.572;6.992;2023-06-26T10:23:14;5.83;;;4.30;;
3171;SDS011;1597;51.572;6.992;2023-06-26T10:25:42;5.40;;;4.20;;
3171;SDS011;1597;51.572;6.992;2023-06-26T10:28:11;4.83;;;3.70;;
3171;SDS011;1597;51.572;6.992;2023-06-26T10:30:42;6.73;;;4.17;;
3171;SDS011;1597;51.572;6.992;2023-06-26T10:33:10;6.20;;;4.30;;
3171;SDS011;1597;51.572;6.992;2023-06-26T10:35:43;6.77;;;4.30;;
3171;SDS011;1597;51.572;6.992;2023-06-26T10:38:09;4.87;;;4.10;;
3171;SDS011;1597;51.572;6.992;2023-06-26T10:40:46;6.80;;;4.90;;
3171;SDS011;1597;51.572;6.992;2023-06-26T10:43:17;10.50;;;5.27;;
3171;SDS011;1597;51.572;6.992;2023-06-26T10:45:46;7.43;;;5.50;;
3171;SDS011;1597;51.572;6.992;2023-06-26T10:48:20;6.83;;;5.57;;
3171;SDS011;1597;51.572;6.992;2023-06-26T10:50:48;5.73;;;4.40;;
3171;SDS011;1597;51.572;6.992;2023-06-26T10:58:33;4.70;;;4.23;;
3171;SDS011;1597;51.572;6.992;2023-06-26T11:03:59;4.70;;;3.87;;
3171;SDS011;1597;51.572;6.992;2023-06-26T11:06:28;4.70;;;4.30;;
3171;SDS011;1597;51.572;6.992;2023-06-26T11:14:17;4.70;;;3.50;;
3171;SDS011;1597;51.572;6.992;2023-06-26T11:16:45;4.93;;;2.97;;
3171;SDS011;1597;51.572;6.992;2023-06-26T11:19:13;4.33;;;3.27;;
3171;SDS011;1597;51.572;6.992;2023-06-26T11:21:40;3.30;;;3.00;;
3171;SDS011;1597;51.572;6.992;2023-06-26T11:24:06;5.30;;;3.87;;
3171;SDS011;1597;51.572;6.992;2023-06-26T11:26:39;3.67;;;3.33;;
3171;SDS011;1597;51.572;6.992;2023-06-26T11:29:05;4.47;;;2.50;;
3171;SDS011;1597;51.572;6.992;2023-06-26T11:31:35;5.07;;;2.93;;
3171;SDS011;1597;51.572;6.992;2023-06-26T11:34:04;3.60;;;2.40;;
3171;SDS011;1597;51.572;6.992;2023-06-26T11:36:41;8.33;;;2.93;;
3171;SDS011;1597;51.572;6.992;2023-06-26T11:39:10;3.97;;;2.53;;
3171;SDS011;1597;51.572;6.992;2023-06-26T11:41:37;4.00;;;2.90;;
3171;SDS011;1597;51.572;6.992;2023-06-26T11:44:08;5.70;;;2.60;;
3171;SDS011;1597;51.572;6.992;2023-06-26T11:46:36;3.87;;;2.37;;
3171;SDS011;1597;51.572;6.992;2023-06-26T11:49:03;3.97;;;2.40;;
3171;SDS011;1597;51.572;6.992;2023-06-26T11:51:34;5.87;;;2.77;;
3171;SDS011;1597;51.572;6.992;2023-06-26T11:54:03;2.57;;;2.30;;
3171;SDS011;1597;51.572;6.992;2023-06-26T11:56:30;4.47;;;2.30;;
3171;SDS011;1597;51.572;6.992;2023-06-26T12:02:11;3.63;;;2.13;;
3171;SDS011;1597;51.572;6.992;2023-06-26T12:04:43;2.30;;;2.10;;
3171;SDS011;1597;51.572;6.992;2023-06-26T12:07:10;5.93;;;2.30;;
3171;SDS011;1597;51.572;6.992;2023-06-26T12:09:42;3.63;;;2.10;;
3171;SDS011;1597;51.572;6.992;2023-06-26T12:12:10;2.40;;;1.50;;
3171;SDS011;1597;51.572;6.992;2023-06-26T12:14:37;2.00;;;1.80;;
3171;SDS011;1597;51.572;6.992;2023-06-26T12:17:08;4.37;;;1.90;;
3171;SDS011;1597;51.572;6.992;2023-06-26T12:19:47;6.57;;;1.67;;
3171;SDS011;1597;51.572;6.992;2023-06-26T12:22:15;3.60;;;2.10;;
3171;SDS011;1597;51.572;6.992;2023-06-26T12:24:42;1.60;;;1.50;;
3171;SDS011;1597;51.572;6.992;2023-06-26T12:27:10;2.60;;;1.30;;
3171;SDS011;1597;51.572;6.992;2023-06-26T12:29:39;2.67;;;1.90;;
3171;SDS011;1597;51.572;6.992;2023-06-26T12:32:12;4.10;;;2.70;;
3171;SDS011;1597;51.572;6.992;2023-06-26T12:34:39;3.33;;;1.90;;
3171;SDS011;1597;51.572;6.992;2023-06-26T12:37:07;2.17;;;1.80;;
3171;SDS011;1597;51.572;6.992;2023-06-26T12:39:48;1.80;;;1.60;;
3171;SDS011;1597;51.572;6.992;2023-06-26T12:42:23;5.17;;;2.53;;
3171;SDS011;1597;51.572;6.992;2023-06-26T12:44:51;4.83;;;1.50;;
3171;SDS011;1597;51.572;6.992;2023-06-26T12:47:25;7.60;;;1.90;;
3171;SDS011;1597;51.572;6.992;2023-06-26T12:49:53;7.60;;;3.07;;
3171;SDS011;1597;51.572;6.992;2023-06-26T12:52:20;3.43;;;1.87;;
3171;SDS011;1597;51.572;6.992;2023-06-26T12:54:46;3.53;;;2.07;;
3171;SDS011;1597;51.572;6.992;2023-06-26T12:57:17;3.77;;;1.70;;
3171;SDS011;1597;51.572;6.992;2023-06-26T12:59:43;4.60;;;2.60;;
3171;SDS011;1597;51.572;6.992;2023-06-26T13:02:09;2.73;;;1.83;;
3171;SDS011;1597;51.572;6.992;2023-06-26T13:04:38;2.90;;;1.83;;
3171;SDS011;1597;51.572;6.992;2023-06-26T13:07:09;2.57;;;1.77;;
3171;SDS011;1597;51.572;6.992;2023-06-26T13:09:36;2.33;;;1.40;;
3171;SDS011;1597;51.572;6.992;2023-06-26T13:12:05;3.50;;;1.47;;
3171;SDS011;1597;51.572;6.992;2023-06-26T13:14:31;4.00;;;1.63;;
3171;SDS011;1597;51.572;6.992;2023-06-26T13:16:58;2.87;;;1.53;;
3171;SDS011;1597;51.572;6.992;2023-06-26T13:19:26;3.00;;;1.80;;
3171;SDS011;1597;51.572;6.992;2023-06-26T13:21:52;1.10;;;1.00;;
3171;SDS011;1597;51.572;6.992;2023-06-26T13:24:18;3.63;;;1.10;;
3171;SDS011;1597;51.572;6.992;2023-06-26T13:26:44;4.93;;;1.50;;
3171;SDS011;1597;51.572;6.992;2023-06-26T13:29:09;7.40;;;1.67;;
3171;SDS011;1597;51.572;6.992;2023-06-26T13:31:37;1.47;;;1.33;;
3171;SDS011;1597;51.572;6.992;2023-06-26T13:34:03;3.90;;;1.70;;
3171;SDS011;1597;51.572;6.992;2023-06-26T13:36:31;4.17;;;1.50;;
3171;SDS011;1597;51.572;6.992;2023-06-26T13:38:58;1.70;;;1.33;;
3171;SDS011;1597;51.572;6.992;2023-06-26T13:41:25;1.90;;;1.40;;
3171;SDS011;1597;51.572;6.992;2023-06-26T13:43:52;2.20;;;1.80;;
3171;SDS011;1597;51.572;6.992;2023-06-26T13:46:18;6.73;;;1.80;;
3171;SDS011;1597;51.572;6.992;2023-06-26T13:48:45;2.13;;;1.60;;
3171;SDS011;1597;51.572;6.992;2023-06-26T13:51:11;2.00;;;1.43;;
3171;SDS011;1597;51.572;6.992;2023-06-26T13:53:37;2.80;;;1.90;;
3171;SDS011;1597;51.572;6.992;2023-06-26T13:56:04;5.63;;;1.80;;
3171;SDS011;1597;51.572;6.992;2023-06-26T13:58:30;3.47;;;1.53;;
3171;SDS011;1597;51.572;6.992;2023-06-26T14:00:57;3.27;;;1.83;;
3171;SDS011;1597;51.572;6.992;2023-06-26T14:03:25;3.73;;;1.80;;
3171;SDS011;1597;51.572;6.992;2023-06-26T14:05:55;2.90;;;1.80;;
3171;SDS011;1597;51.572;6.992;2023-06-26T14:08:21;3.40;;;2.13;;
3171;SDS011;1597;51.572;6.992;2023-06-26T14:10:46;2.63;;;2.43;;
3171;SDS011;1597;51.572;6.992;2023-06-26T14:13:12;7.50;;;2.20;;
3171;SDS011;1597;51.572;6.992;2023-06-26T14:15:40;4.57;;;1.60;;
3171;SDS011;1597;51.572;6.992;2023-06-26T14:18:07;2.57;;;2.07;;
3171;SDS011;1597;51.572;6.992;2023-06-26T14:20:33;2.10;;;1.40;;
3171;SDS011;1597;51.572;6.992;2023-06-26T14:23:00;4.10;;;1.80;;
3171;SDS011;1597;51.572;6.992;2023-06-26T14:25:27;5.87;;;2.80;;
3171;SDS011;1597;51.572;6.992;2023-06-26T14:27:54;4.60;;;1.93;;
3171;SDS011;1597;51.572;6.992;2023-06-26T14:30:23;3.17;;;1.67;;
3171;SDS011;1597;51.572;6.992;2023-06-26T14:32:49;2.50;;;1.90;;
3171;SDS011;1597;51.572;6.992;2023-06-26T14:35:15;2.87;;;2.20;;
3171;SDS011;1597;51.572;6.992;2023-06-26T14:37:41;2.97;;;2.03;;
3171;SDS011;1597;51.572;6.992;2023-06-26T14:40:09;5.17;;;3.27;;
3171;SDS011;1597;51.572;6.992;2023-06-26T14:42:35;3.50;;;2.30;;
3171;SDS011;1597;51.572;6.992;2023-06-26T14:45:02;3.73;;;2.13;;
3171;SDS011;1597;51.572;6.992;2023-06-26T14:47:28;5.67;;;2.53;;
3171;SDS011;1597;51.572;6.992;2023-06-26T14:49:54;3.67;;;2.70;;
3171;SDS011;1597;51.572;6.992;2023-06-26T14:52:20;2.33;;;2.13;;
3171;SDS011;1597;51.572;6.992;2023-06-26T14:54:45;5.10;;;2.47;;
3171;SDS011;1597;51.572;6.992;2023-06-26T14:57:11;8.47;;;6.90;;
3171;SDS011;1597;51.572;6.992;2023-06-26T14:59:37;3.53;;;2.27;;
3171;SDS011;1597;51.572;6.992;2023-06-26T15:02:03;8.40;;;2.70;;
3171;SDS011;1597;51.572;6.992;2023-06-26T15:04:29;2.17;;;1.97;;
3171;SDS011;1597;51.572;6.992;2023-06-26T15:06:56;2.27;;;2.07;;
3171;SDS011;1597;51.572;6.992;2023-06-26T15:09:23;3.80;;;1.60;;
3171;SDS011;1597;51.572;6.992;2023-06-26T15:11:49;3.00;;;1.97;;
3171;SDS011;1597;51.572;6.992;2023-06-26T15:14:15;4.07;;;1.70;;
3171;SDS011;1597;51.572;6.992;2023-06-26T15:16:41;2.70;;;2.03;;
3171;SDS011;1597;51.572;6.992;2023-06-26T15:19:07;5.50;;;2.70;;
3171;SDS011;1597;51.572;6.992;2023-06-26T15:21:34;3.40;;;1.67;;
3171;SDS011;1597;51.572;6.992;2023-06-26T15:24:00;4.17;;;2.07;;
3171;SDS011;1597;51.572;6.992;2023-06-26T15:26:26;3.50;;;2.43;;
3171;SDS011;1597;51.572;6.992;2023-06-26T15:28:52;2.70;;;1.87;;
3171;SDS011;1597;51.572;6.992;2023-06-26T15:31:19;3.63;;;2.10;;
3171;SDS011;1597;51.572;6.992;2023-06-26T15:33:48;5.10;;;1.87;;
3171;SDS011;1597;51.572;6.992;2023-06-26T15:36:13;3.10;;;2.17;;
3171;SDS011;1597;51.572;6.992;2023-06-26T15:38:40;2.77;;;1.70;;
3171;SDS011;1597;51.572;6.992;2023-06-26T15:41:06;2.40;;;1.90;;
3171;SDS011;1597;51.572;6.992;2023-06-26T15:43:32;2.20;;;2.00;;
3171;SDS011;1597;51.572;6.992;2023-06-26T15:45:58;4.23;;;2.13;;
3171;SDS011;1597;51.572;6.992;2023-06-26T15:48:24;3.00;;;2.00;;
3171;SDS011;1597;51.572;6.992;2023-06-26T15:50:50;1.33;;;1.20;;
3171;SDS011;1597;51.572;6.992;2023-06-26T15:53:16;4.63;;;2.07;;
3171;SDS011;1597;51.572;6.992;2023-06-26T15:55:43;1.50;;;1.40;;
3171;SDS011;1597;51.572;6.992;2023-06-26T15:58:09;3.87;;;1.90;;
3171;SDS011;1597;51.572;6.992;2023-06-26T16:00:34;2.70;;;1.80;;
3171;SDS011;1597;51.572;6.992;2023-06-26T16:03:00;2.53;;;1.40;;
3171;SDS011;1597;51.572;6.992;2023-06-26T16:05:26;1.87;;;1.60;;
3171;SDS011;1597;51.572;6.992;2023-06-26T16:07:52;3.03;;;1.70;;
3171;SDS011;1597;51.572;6.992;2023-06-26T16:10:17;3.23;;;1.63;;
3171;SDS011;1597;51.572;6.992;2023-06-26T16:12:43;1.87;;;1.20;;